Albany, New York
Traffic Map
Current Weather Conditions
Albany, New York
Clear
Clear
78°
Feels Like: 80°
Wind Chill: 78° Ceiling: Unl
Heat Index: 80° Visibility: 10mi
Dew Point: 69° Wind: 5mph
Humidity: 74% Direction: 180° (S)
Pressure: 29.92in Gusts: 0mph
Raw Report DataKALB 020151Z 18004KT 10SM CLR 26/21 A2992 RMK AO2 SLP130 T02560206 $
Traffic Incident Summary
Active as of:
Severity:
Category:
InformationThere was an issue retrieving the traffic information for this location. Please try a different location or try again shortly.
Advertisements
Track Severe Weather on mobile